createdAt,value
2018-06-10T00:00:03.079Z,37.15
2018-06-10T00:02:37.201Z,36.30
2018-06-10T00:05:11.571Z,35.23
2018-06-10T00:07:45.419Z,34.48
2018-06-10T00:10:19.233Z,32.78
2018-06-10T00:12:53.408Z,32.78
2018-06-10T00:15:27.691Z,38.83
2018-06-10T00:18:01.928Z,34.78
2018-06-10T00:20:35.795Z,36.70
2018-06-10T00:23:09.916Z,34.08
2018-06-10T00:25:44.647Z,34.00
2018-06-10T00:28:24.260Z,32.98
2018-06-10T00:30:58.119Z,33.25
2018-06-10T00:33:32.311Z,38.23
2018-06-10T00:36:06.311Z,36.98
2018-06-10T00:38:40.426Z,37.95
2018-06-10T00:41:14.809Z,33.92
2018-06-10T00:43:49.001Z,34.13
2018-06-10T00:46:22.833Z,37.17
2018-06-10T00:48:57.396Z,40.63
2018-06-10T00:51:31.518Z,38.80
2018-06-10T00:54:05.682Z,37.95
2018-06-10T00:56:48.885Z,39.00
2018-06-10T00:59:22.825Z,36.45
2018-06-10T01:01:56.817Z,38.02
2018-06-10T01:04:30.875Z,35.65
2018-06-10T01:07:05.222Z,38.58
2018-06-10T01:09:39.345Z,37.10
2018-06-10T01:12:13.225Z,39.10
2018-06-10T01:14:47.202Z,36.58
2018-06-10T01:17:21.363Z,39.67
2018-06-10T01:19:55.592Z,38.42
2018-06-10T01:22:29.820Z,37.00
2018-06-10T01:25:03.801Z,37.73
2018-06-10T01:27:37.811Z,36.73
2018-06-10T01:30:12.000Z,32.75
2018-06-10T01:32:45.952Z,27.87
2018-06-10T01:35:20.006Z,29.00
2018-06-10T01:37:53.697Z,30.65
2018-06-10T01:40:27.725Z,32.42
2018-06-10T01:43:01.882Z,42.80
2018-06-10T01:45:36.032Z,34.75
2018-06-10T01:48:10.377Z,44.88
2018-06-10T01:50:44.195Z,45.23
2018-06-10T01:53:25.191Z,48.20
2018-06-10T01:55:59.610Z,77.78
2018-06-10T01:58:33.893Z,57.23
2018-06-10T02:01:08.403Z,55.95
2018-06-10T02:03:42.582Z,63.20
2018-06-10T02:06:16.512Z,66.40
2018-06-10T02:08:50.541Z,54.30
2018-06-10T02:11:24.939Z,44.85
2018-06-10T02:13:59.102Z,57.70
2018-06-10T02:16:33.066Z,58.85
2018-06-10T02:19:07.025Z,56.50
2018-06-10T02:21:41.412Z,51.20
2018-06-10T02:24:15.307Z,50.65
2018-06-10T02:26:49.230Z,52.43
2018-06-10T02:29:23.066Z,47.83
2018-06-10T02:31:57.832Z,52.38
2018-06-10T02:34:31.983Z,51.95
2018-06-10T02:37:06.113Z,44.55
2018-06-10T02:39:40.218Z,50.67
2018-06-10T02:42:14.366Z,55.03
2018-06-10T02:44:53.001Z,54.83
2018-06-10T02:47:26.921Z,43.80
2018-06-10T02:50:00.997Z,52.58
2018-06-10T02:52:35.009Z,47.03
2018-06-10T02:55:09.127Z,44.83
2018-06-10T02:57:42.994Z,49.25
2018-06-10T03:00:17.271Z,48.70
2018-06-10T03:02:51.136Z,42.90
2018-06-10T03:05:25.334Z,40.55
2018-06-10T03:07:59.862Z,44.10
2018-06-10T03:10:33.863Z,47.78
2018-06-10T03:13:08.015Z,44.05
2018-06-10T03:15:42.286Z,42.33
2018-06-10T03:18:16.444Z,39.33
2018-06-10T03:20:50.654Z,38.63
2018-06-10T03:23:24.630Z,37.38
2018-06-10T03:25:58.771Z,36.30
2018-06-10T03:28:32.772Z,36.38
2018-06-10T03:31:06.801Z,37.78
2018-06-10T03:33:40.967Z,33.00
2018-06-10T03:36:14.878Z,34.88
2018-06-10T03:38:49.068Z,37.80
2018-06-10T03:41:23.138Z,39.83
2018-06-10T03:43:57.153Z,39.95
2018-06-10T03:46:31.232Z,45.03
2018-06-10T03:49:05.451Z,43.63
2018-06-10T03:51:39.722Z,48.90
2018-06-10T03:54:13.969Z,45.40
2018-06-10T03:56:48.156Z,45.98
2018-06-10T03:59:22.192Z,46.50
2018-06-10T04:01:56.181Z,47.62
2018-06-10T04:04:30.141Z,45.52
2018-06-10T04:07:04.264Z,42.53
2018-06-10T04:09:38.231Z,38.67
2018-06-10T04:12:12.481Z,36.40
2018-06-10T04:14:46.592Z,36.45
2018-06-10T04:17:20.807Z,34.13
2018-06-10T04:19:55.427Z,29.23
2018-06-10T04:22:29.527Z,29.12
2018-06-10T04:25:03.845Z,29.35
2018-06-10T04:27:38.102Z,26.57
2018-06-10T04:30:12.719Z,27.60
2018-06-10T04:32:47.071Z,28.20
2018-06-10T04:35:22.106Z,30.25
2018-06-10T04:37:56.315Z,32.20
2018-06-10T04:40:30.448Z,34.67
2018-06-10T04:43:04.443Z,35.58
2018-06-10T04:45:38.326Z,34.60
2018-06-10T04:48:12.627Z,35.23
2018-06-10T04:50:51.148Z,37.10
2018-06-10T04:53:30.149Z,37.60
2018-06-10T04:56:04.363Z,37.53
2018-06-10T04:58:38.517Z,36.73
2018-06-10T05:01:12.686Z,36.65
2018-06-10T05:03:46.711Z,38.05
2018-06-10T05:06:20.481Z,38.65
2018-06-10T05:08:54.487Z,34.80
2018-06-10T05:11:28.639Z,34.55
2018-06-10T05:14:02.768Z,38.65
2018-06-10T05:16:37.228Z,36.53
2018-06-10T05:19:15.754Z,38.33
2018-06-10T05:21:49.547Z,38.05
2018-06-10T05:24:23.706Z,37.73
2018-06-10T05:26:57.906Z,35.68
2018-06-10T05:29:32.114Z,33.75
2018-06-10T05:32:06.391Z,37.38
2018-06-10T05:34:40.363Z,39.55
2018-06-10T05:37:14.573Z,39.88
2018-06-10T05:39:48.319Z,37.75
2018-06-10T05:42:22.287Z,35.98
2018-06-10T05:44:56.371Z,37.10
2018-06-10T05:47:30.658Z,35.68
2018-06-10T05:50:04.953Z,36.40
2018-06-10T05:52:38.690Z,38.08
2018-06-10T05:55:13.506Z,38.92
2018-06-10T05:57:47.304Z,38.38
2018-06-10T06:00:21.606Z,38.23
2018-06-10T06:02:55.672Z,36.55
2018-06-10T06:05:30.283Z,36.75
2018-06-10T06:08:05.367Z,35.28
2018-06-10T06:10:39.322Z,35.40
2018-06-10T06:13:13.661Z,35.33
2018-06-10T06:15:48.053Z,36.03
2018-06-10T06:18:22.147Z,41.08
2018-06-10T06:20:56.078Z,40.85
2018-06-10T06:23:30.382Z,36.65
2018-06-10T06:26:05.107Z,40.33
2018-06-10T06:28:39.102Z,36.83
2018-06-10T06:31:13.417Z,38.63
2018-06-10T06:33:47.852Z,38.23
2018-06-10T06:36:22.139Z,35.33
2018-06-10T06:39:00.668Z,37.60
2018-06-10T06:41:34.861Z,37.13
2018-06-10T06:44:08.594Z,34.35
2018-06-10T06:46:42.803Z,35.43
2018-06-10T06:49:16.848Z,32.67
2018-06-10T06:51:50.871Z,35.10
2018-06-10T06:54:25.163Z,34.33
2018-06-10T06:56:59.461Z,33.85
2018-06-10T06:59:34.201Z,35.80
2018-06-10T07:02:08.591Z,36.03
2018-06-10T07:04:42.978Z,36.15
2018-06-10T07:07:17.511Z,37.17
2018-06-10T07:09:51.507Z,35.55
2018-06-10T07:12:25.575Z,36.28
2018-06-10T07:14:59.924Z,34.33
2018-06-10T07:17:34.023Z,36.28
2018-06-10T07:20:12.662Z,37.50
2018-06-10T07:22:46.593Z,35.63
2018-06-10T07:25:20.702Z,37.67
2018-06-10T07:27:54.791Z,39.20
2018-06-10T07:30:29.267Z,40.43
2018-06-10T07:33:03.433Z,37.38
2018-06-10T07:35:37.442Z,35.20
2018-06-10T07:38:16.174Z,35.03
2018-06-10T07:40:50.076Z,33.70
2018-06-10T07:43:23.922Z,29.65
2018-06-10T07:45:57.963Z,30.57
2018-06-10T07:48:32.292Z,30.82
2018-06-10T07:51:06.333Z,29.45
2018-06-10T07:53:40.539Z,29.35
2018-06-10T07:56:15.048Z,30.12
2018-06-10T07:58:48.860Z,28.20
2018-06-10T08:01:22.664Z,24.37
2018-06-10T08:03:56.668Z,25.50
2018-06-10T08:06:31.368Z,26.25
2018-06-10T08:09:06.976Z,25.37
2018-06-10T08:11:40.924Z,25.70
2018-06-10T08:14:14.985Z,25.62
2018-06-10T08:16:49.102Z,23.62
2018-06-10T08:19:23.354Z,23.25
2018-06-10T08:21:57.292Z,22.07
2018-06-10T08:24:31.223Z,22.73
2018-06-10T08:27:05.576Z,20.62
2018-06-10T08:29:39.647Z,18.67
2018-06-10T08:32:13.623Z,17.85
2018-06-10T08:34:47.747Z,17.87
2018-06-10T08:37:21.814Z,20.25
2018-06-10T08:39:55.920Z,20.25
2018-06-10T08:42:30.777Z,24.80
2018-06-10T08:45:05.361Z,22.58
2018-06-10T08:47:39.463Z,22.77
2018-06-10T08:50:13.585Z,24.15
2018-06-10T08:52:47.618Z,21.87
2018-06-10T08:55:22.240Z,19.82
2018-06-10T08:57:56.403Z,19.70
2018-06-10T09:00:30.793Z,19.52
2018-06-10T09:03:05.228Z,18.57
2018-06-10T09:05:39.479Z,22.07
2018-06-10T09:08:17.671Z,19.57
2018-06-10T09:10:51.497Z,20.48
2018-06-10T09:13:25.748Z,20.45
2018-06-10T09:16:04.246Z,16.52
2018-06-10T09:18:38.092Z,18.77
2018-06-10T09:21:12.361Z,17.82
2018-06-10T09:23:46.355Z,17.15
2018-06-10T09:26:20.598Z,18.60
2018-06-10T09:28:55.141Z,16.57
2018-06-10T09:31:35.823Z,16.55
2018-06-10T09:34:09.915Z,17.05
2018-06-10T09:36:43.924Z,18.50
2018-06-10T09:39:17.993Z,16.02
2018-06-10T09:41:52.219Z,16.45
2018-06-10T09:44:26.715Z,17.45
2018-06-10T09:47:03.130Z,16.45
2018-06-10T09:49:37.690Z,15.60
2018-06-10T09:52:11.793Z,16.57
2018-06-10T09:54:45.752Z,16.23
2018-06-10T09:57:20.399Z,15.55
2018-06-10T09:59:55.074Z,16.02
2018-06-10T10:02:28.967Z,16.48
2018-06-10T10:05:03.132Z,16.00
2018-06-10T10:07:37.258Z,17.35
2018-06-10T10:10:11.459Z,19.48
2018-06-10T10:12:45.734Z,19.02
2018-06-10T10:15:19.598Z,18.40
2018-06-10T10:17:53.937Z,17.87
2018-06-10T10:20:28.228Z,19.15
2018-06-10T10:23:02.614Z,18.70
2018-06-10T10:25:36.629Z,20.70
2018-06-10T10:28:10.571Z,22.35
2018-06-10T10:30:44.884Z,21.50
2018-06-10T10:33:19.219Z,21.80
2018-06-10T10:35:53.365Z,20.92
2018-06-10T10:38:27.732Z,20.88
2018-06-10T10:41:02.074Z,21.42
2018-06-10T10:43:37.047Z,20.20
2018-06-10T10:46:15.328Z,20.45
2018-06-10T10:48:49.630Z,20.85
2018-06-10T10:51:23.998Z,19.30
2018-06-10T10:53:58.153Z,18.10
2018-06-10T10:56:32.484Z,18.77
2018-06-10T10:59:06.353Z,18.15
2018-06-10T11:01:40.701Z,18.17
2018-06-10T11:04:14.670Z,17.10
2018-06-10T11:06:48.664Z,16.52
2018-06-10T11:09:22.877Z,19.60
2018-06-10T11:11:57.122Z,21.30
2018-06-10T11:14:37.754Z,23.95
2018-06-10T11:17:12.189Z,24.70
2018-06-10T11:19:46.337Z,23.10
2018-06-10T11:22:20.585Z,21.33
2018-06-10T11:24:54.770Z,22.67
2018-06-10T11:27:28.934Z,22.17
2018-06-10T11:30:03.335Z,19.80
2018-06-10T11:32:37.713Z,19.32
2018-06-10T11:35:12.468Z,18.73
2018-06-10T11:37:46.526Z,19.37
2018-06-10T11:40:20.611Z,18.95
2018-06-10T11:42:54.523Z,18.23
2018-06-10T11:45:28.316Z,15.90
2018-06-10T11:48:02.654Z,17.65
2018-06-10T11:50:37.393Z,18.80
2018-06-10T11:53:11.684Z,15.98
2018-06-10T11:55:46.362Z,13.55
2018-06-10T11:58:20.307Z,13.90
2018-06-10T12:00:54.401Z,13.58
2018-06-10T12:03:28.303Z,13.38
2018-06-10T12:06:02.626Z,12.37
2018-06-10T12:08:36.863Z,11.80
2018-06-10T12:11:10.748Z,11.53
2018-06-10T12:13:45.128Z,11.83
2018-06-10T12:16:19.313Z,11.05
2018-06-10T12:18:53.389Z,10.20
2018-06-10T12:21:27.549Z,9.73
2018-06-10T12:24:01.748Z,10.03
2018-06-10T12:26:35.843Z,10.23
2018-06-10T12:29:10.024Z,10.68
2018-06-10T12:31:44.103Z,10.48
2018-06-10T12:34:18.297Z,10.20
2018-06-10T12:36:52.472Z,11.25
2018-06-10T12:39:26.728Z,11.03
2018-06-10T12:42:01.632Z,9.83
2018-06-10T12:44:35.607Z,11.28
2018-06-10T12:47:09.542Z,10.18
2018-06-10T12:49:43.913Z,10.63
2018-06-10T12:52:18.408Z,11.03
2018-06-10T12:54:53.134Z,10.48
2018-06-10T12:57:27.193Z,10.82
2018-06-10T13:00:01.445Z,12.15
2018-06-10T13:02:35.907Z,11.30
2018-06-10T13:05:09.948Z,10.85
2018-06-10T13:07:44.080Z,9.25
2018-06-10T13:10:18.518Z,10.28
2018-06-10T13:12:52.747Z,10.70
2018-06-10T13:15:26.758Z,11.88
2018-06-10T13:18:00.651Z,14.23
2018-06-10T13:20:35.178Z,12.43
2018-06-10T13:23:09.703Z,13.28
2018-06-10T13:25:43.854Z,12.65
2018-06-10T13:28:17.891Z,12.45
2018-06-10T13:30:52.344Z,11.95
2018-06-10T13:33:27.605Z,12.45
2018-06-10T13:36:01.969Z,13.48
2018-06-10T13:38:36.291Z,13.75
2018-06-10T13:41:10.364Z,11.48
2018-06-10T13:43:44.488Z,11.68
2018-06-10T13:46:18.562Z,11.00
2018-06-10T13:48:52.701Z,11.43
2018-06-10T13:51:27.120Z,12.55
2018-06-10T13:54:01.168Z,11.40
2018-06-10T13:56:35.337Z,10.72
2018-06-10T13:59:09.446Z,11.43
2018-06-10T14:01:43.822Z,11.20
2018-06-10T14:04:17.967Z,12.33
2018-06-10T14:06:52.210Z,10.70
2018-06-10T14:09:26.394Z,11.43
2018-06-10T14:12:00.851Z,12.93
2018-06-10T14:14:34.656Z,13.48
2018-06-10T14:17:09.226Z,11.48
2018-06-10T14:19:43.675Z,12.03
2018-06-10T14:22:17.915Z,12.45
2018-06-10T14:24:52.148Z,12.80
2018-06-10T14:27:26.688Z,12.75
2018-06-10T14:30:01.054Z,11.63
2018-06-10T14:32:35.341Z,14.15
2018-06-10T14:35:09.493Z,14.28
2018-06-10T14:37:44.767Z,14.33
2018-06-10T14:40:18.810Z,13.60
2018-06-10T14:42:53.425Z,15.30
2018-06-10T14:45:27.667Z,11.95
2018-06-10T14:48:01.829Z,13.53
2018-06-10T14:50:36.242Z,13.78
2018-06-10T14:53:10.470Z,14.53
2018-06-10T14:55:44.764Z,13.10
2018-06-10T14:58:18.741Z,14.30
2018-06-10T15:00:52.608Z,15.18
2018-06-10T15:03:26.861Z,14.68
2018-06-10T15:06:01.111Z,13.60
2018-06-10T15:08:35.225Z,14.70
2018-06-10T15:11:09.658Z,12.98
2018-06-10T15:13:43.811Z,15.63
2018-06-10T15:16:18.053Z,14.03
2018-06-10T15:18:52.730Z,13.80
2018-06-10T15:21:27.413Z,12.93
2018-06-10T15:24:02.010Z,13.00
2018-06-10T15:26:36.016Z,13.35
2018-06-10T15:29:10.183Z,12.93
2018-06-10T15:31:44.264Z,13.38
2018-06-10T15:34:18.015Z,13.88
2018-06-10T15:36:52.496Z,12.30
2018-06-10T15:39:27.450Z,11.43
2018-06-10T15:42:02.441Z,13.10
2018-06-10T15:44:37.974Z,11.45
2018-06-10T15:47:12.606Z,12.25
2018-06-10T15:49:47.108Z,12.73
2018-06-10T15:52:21.220Z,13.40
2018-06-10T15:54:55.153Z,16.62
2018-06-10T15:57:29.522Z,16.65
2018-06-10T16:00:03.615Z,17.95
2018-06-10T16:02:37.668Z,17.52
2018-06-10T16:05:11.888Z,17.37
2018-06-10T16:07:46.030Z,16.27
2018-06-10T16:10:19.909Z,15.83
2018-06-10T16:12:54.234Z,14.25
2018-06-10T16:15:28.401Z,13.88
2018-06-10T16:18:02.489Z,12.70
2018-06-10T16:20:36.694Z,13.28
2018-06-10T16:23:10.619Z,11.45
2018-06-10T16:25:44.784Z,10.10
2018-06-10T16:28:19.183Z,8.25
2018-06-10T16:30:53.611Z,8.25
2018-06-10T16:33:28.077Z,9.20
2018-06-10T16:36:02.124Z,8.40
2018-06-10T16:38:36.686Z,7.97
2018-06-10T16:41:14.996Z,7.50
2018-06-10T16:43:49.171Z,7.50
2018-06-10T16:46:23.216Z,9.33
2018-06-10T16:48:57.750Z,7.92
2018-06-10T16:51:31.991Z,7.67
2018-06-10T16:54:06.158Z,8.03
2018-06-10T16:56:40.150Z,8.25
2018-06-10T16:59:14.207Z,7.80
2018-06-10T17:01:48.279Z,9.45
2018-06-10T17:04:22.326Z,9.40
2018-06-10T17:06:56.669Z,10.53
2018-06-10T17:09:30.808Z,10.95
2018-06-10T17:12:04.959Z,10.05
2018-06-10T17:14:39.227Z,11.05
2018-06-10T17:17:13.815Z,10.98
2018-06-10T17:19:48.415Z,11.75
2018-06-10T17:22:22.764Z,11.80
2018-06-10T17:24:57.319Z,10.72
2018-06-10T17:27:31.768Z,12.18
2018-06-10T17:30:05.977Z,12.20
2018-06-10T17:32:40.294Z,13.60
2018-06-10T17:35:14.575Z,13.53
2018-06-10T17:37:49.047Z,12.33
2018-06-10T17:40:23.469Z,13.15
2018-06-10T17:42:57.763Z,13.18
2018-06-10T17:45:32.184Z,12.03
2018-06-10T17:48:07.270Z,12.47
2018-06-10T17:50:41.671Z,12.88
2018-06-10T17:53:16.507Z,12.47
2018-06-10T17:55:50.714Z,12.05
2018-06-10T17:58:24.983Z,12.65
2018-06-10T18:00:59.193Z,13.68
2018-06-10T18:03:33.772Z,13.43
2018-06-10T18:06:08.111Z,12.78
2018-06-10T18:08:42.455Z,12.50
2018-06-10T18:11:16.624Z,13.65
2018-06-10T18:13:51.208Z,13.13
2018-06-10T18:16:25.558Z,13.72
2018-06-10T18:19:00.339Z,13.78
2018-06-10T18:21:34.326Z,13.80
2018-06-10T18:24:08.516Z,14.13
2018-06-10T18:26:42.829Z,14.43
2018-06-10T18:29:17.057Z,13.18
2018-06-10T18:31:51.323Z,13.78
2018-06-10T18:34:25.363Z,13.72
2018-06-10T18:36:59.658Z,12.68
2018-06-10T18:39:33.786Z,11.78
2018-06-10T18:42:08.126Z,12.25
2018-06-10T18:44:42.794Z,12.63
2018-06-10T18:47:17.061Z,13.40
2018-06-10T18:49:51.549Z,14.63
2018-06-10T18:52:25.622Z,12.23
2018-06-10T18:55:00.293Z,12.70
2018-06-10T18:57:34.576Z,12.50
2018-06-10T19:00:08.808Z,12.40
2018-06-10T19:02:43.226Z,14.87
2018-06-10T19:05:17.978Z,15.00
2018-06-10T19:07:52.646Z,12.75
2018-06-10T19:10:27.765Z,13.43
2018-06-10T19:13:02.679Z,14.20
2018-06-10T19:15:37.201Z,13.05
2018-06-10T19:18:12.212Z,14.03
2018-06-10T19:20:46.747Z,16.23
2018-06-10T19:23:22.074Z,13.68
2018-06-10T19:25:56.902Z,13.93
2018-06-10T19:28:31.625Z,14.58
2018-06-10T19:31:06.644Z,13.62
2018-06-10T19:33:41.374Z,13.10
2018-06-10T19:36:16.217Z,14.55
2018-06-10T19:38:51.253Z,14.50
2018-06-10T19:41:26.016Z,16.42
2018-06-10T19:44:00.546Z,14.23
2018-06-10T19:46:35.346Z,13.13
2018-06-10T19:49:09.712Z,14.65
2018-06-10T19:51:44.526Z,14.40
2018-06-10T19:54:19.268Z,14.07
2018-06-10T19:56:54.098Z,13.75
2018-06-10T19:59:29.082Z,14.15
2018-06-10T20:02:04.230Z,14.98
2018-06-10T20:04:38.344Z,14.87
2018-06-10T20:07:12.784Z,14.23
2018-06-10T20:09:46.623Z,14.33
2018-06-10T20:12:20.755Z,15.23
2018-06-10T20:14:55.294Z,15.13
2018-06-10T20:17:29.566Z,13.85
2018-06-10T20:20:03.981Z,15.13
2018-06-10T20:22:38.851Z,16.05
2018-06-10T20:25:12.881Z,16.12
2018-06-10T20:27:47.135Z,16.90
2018-06-10T20:30:21.319Z,18.60
2018-06-10T20:32:55.465Z,15.85
2018-06-10T20:35:29.565Z,16.57
2018-06-10T20:38:03.764Z,16.20
2018-06-10T20:40:45.898Z,16.85
2018-06-10T20:43:20.072Z,21.73
2018-06-10T20:45:59.852Z,17.45
2018-06-10T20:48:34.236Z,17.20
2018-06-10T20:51:08.276Z,16.65
2018-06-10T20:53:42.875Z,17.02
2018-06-10T20:56:17.622Z,16.42
2018-06-10T20:58:52.253Z,17.80
2018-06-10T21:01:26.517Z,17.95
2018-06-10T21:04:01.029Z,15.43
2018-06-10T21:06:35.304Z,15.20
2018-06-10T21:09:09.433Z,16.02
2018-06-10T21:11:43.871Z,15.98
2018-06-10T21:14:23.087Z,16.67
2018-06-10T21:16:57.632Z,16.80
2018-06-10T21:19:32.420Z,17.80
2018-06-10T21:22:07.172Z,14.47
2018-06-10T21:24:41.449Z,17.30
2018-06-10T21:27:15.533Z,15.95
2018-06-10T21:29:49.599Z,15.25
2018-06-10T21:32:23.895Z,16.37
2018-06-10T21:34:58.076Z,16.60
2018-06-10T21:37:31.928Z,16.15
2018-06-10T21:40:06.115Z,17.27
2018-06-10T21:42:40.071Z,18.12
2018-06-10T21:45:14.304Z,16.32
2018-06-10T21:47:48.401Z,18.00
2018-06-10T21:50:23.126Z,17.27
2018-06-10T21:52:57.208Z,19.42
2018-06-10T21:55:31.250Z,18.27
2018-06-10T21:58:05.337Z,19.62
2018-06-10T22:00:39.321Z,18.80
2018-06-10T22:03:13.781Z,21.30
2018-06-10T22:05:47.802Z,21.48
2018-06-10T22:08:21.939Z,19.82
2018-06-10T22:10:55.849Z,17.60
2018-06-10T22:13:29.969Z,19.02
2018-06-10T22:16:04.237Z,19.77
2018-06-10T22:18:38.619Z,20.43
2018-06-10T22:21:12.958Z,20.65
2018-06-10T22:23:46.852Z,18.87
2018-06-10T22:26:20.954Z,20.68
2018-06-10T22:28:55.435Z,21.37
2018-06-10T22:31:29.553Z,19.77
2018-06-10T22:34:03.959Z,20.15
2018-06-10T22:36:37.696Z,20.20
2018-06-10T22:39:12.246Z,20.70
2018-06-10T22:41:46.200Z,21.90
2018-06-10T22:44:20.265Z,19.92
2018-06-10T22:46:54.247Z,20.68
2018-06-10T22:49:28.539Z,20.57
2018-06-10T22:52:02.889Z,21.48
2018-06-10T22:54:38.609Z,21.60
2018-06-10T22:57:13.236Z,22.82
2018-06-10T22:59:47.402Z,21.35
2018-06-10T23:02:21.299Z,20.35
2018-06-10T23:04:55.289Z,22.13
2018-06-10T23:07:29.330Z,19.85
2018-06-10T23:10:03.399Z,20.62
2018-06-10T23:12:37.306Z,21.62
2018-06-10T23:15:11.541Z,23.18
2018-06-10T23:17:45.544Z,19.70
2018-06-10T23:20:19.527Z,20.20
2018-06-10T23:22:53.549Z,21.57
2018-06-10T23:25:27.562Z,20.25
2018-06-10T23:28:01.339Z,20.10
2018-06-10T23:30:35.325Z,19.30
2018-06-10T23:33:09.475Z,19.60
2018-06-10T23:35:44.076Z,19.73
2018-06-10T23:38:18.134Z,19.67
2018-06-10T23:40:51.825Z,20.02
2018-06-10T23:43:25.709Z,20.62
2018-06-10T23:45:59.495Z,21.52
2018-06-10T23:48:34.069Z,20.00
2018-06-10T23:51:07.790Z,23.73
2018-06-10T23:53:41.800Z,19.87
2018-06-10T23:56:15.610Z,22.70
2018-06-10T23:58:49.681Z,23.05
